Time,TemperatureF,DewpointF,PressureIn,WindDirection,WindDirectionDegrees,WindSpeedMPH,WindSpeedGustMPH,Humidity,HourlyPrecipIn,Conditions,Clouds,dailyrainin,SoftwareType,DateUTC
2013-02-18 00:11:00,34.0,26.0,-100.00,ENE,71,2.0,4.0,72,-99.99,,,-99.99,,2013-02-18 08:11:00,
2013-02-18 00:21:00,34.0,26.0,-100.00,ENE,71,2.0,4.0,72,-99.99,,,-99.99,,2013-02-18 08:21:00,
2013-02-18 00:32:00,33.0,25.0,-100.00,ENE,62,2.0,4.0,71,-99.99,,,-99.99,,2013-02-18 08:32:00,
2013-02-18 00:42:00,33.0,25.0,-100.00,ENE,62,2.0,4.0,71,-99.99,,,-99.99,,2013-02-18 08:42:00,
2013-02-18 00:52:00,33.0,24.0,-100.00,ENE,72,1.0,3.0,68,-99.99,,,-99.99,,2013-02-18 08:52:00,
2013-02-18 01:02:00,33.0,24.0,-100.00,ENE,72,1.0,3.0,68,-99.99,,,-99.99,,2013-02-18 09:02:00,
2013-02-18 01:31:00,33.0,24.0,-100.00,ENE,64,1.0,2.0,69,-99.99,,,-99.99,,2013-02-18 09:31:00,
2013-02-18 01:41:00,33.0,24.0,-100.00,ENE,64,1.0,2.0,69,-99.99,,,-99.99,,2013-02-18 09:41:00,
2013-02-18 02:31:00,32.0,24.0,-100.00,ENE,65,1.0,3.0,72,-99.99,,,-99.99,,2013-02-18 10:31:00,
2013-02-18 02:42:00,32.0,24.0,-100.00,ENE,65,1.0,3.0,72,-99.99,,,-99.99,,2013-02-18 10:42:00,
2013-02-18 02:52:00,32.0,24.0,-100.00,ENE,71,2.0,3.0,74,-99.99,,,-99.99,,2013-02-18 10:52:00,
2013-02-18 03:01:00,32.0,24.0,-100.00,ENE,71,2.0,3.0,74,-99.99,,,-99.99,,2013-02-18 11:01:00,
2013-02-18 03:32:00,32.0,25.0,-100.00,ENE,64,1.0,3.0,74,-99.99,,,-99.99,,2013-02-18 11:32:00,
2013-02-18 03:42:00,32.0,25.0,-100.00,ENE,64,1.0,3.0,74,-99.99,,,-99.99,,2013-02-18 11:42:00,
2013-02-18 04:02:00,31.0,25.0,-100.00,ENE,59,0.0,2.0,76,-99.99,,,-99.99,,2013-02-18 12:02:00,
2013-02-18 04:11:00,32.0,25.0,-100.00,ENE,59,0.0,3.0,75,-99.99,,,-99.99,,2013-02-18 12:11:00,
2013-02-18 04:22:00,32.0,25.0,-100.00,ENE,59,0.0,3.0,75,-99.99,,,-99.99,,2013-02-18 12:22:00,
2013-02-18 04:32:00,32.0,25.0,-100.00,ENE,65,1.0,2.0,75,-99.99,,,-99.99,,2013-02-18 12:32:00,
2013-02-18 04:42:00,32.0,25.0,-100.00,ENE,65,1.0,2.0,75,-99.99,,,-99.99,,2013-02-18 12:42:00,
2013-02-18 04:53:00,31.0,24.0,-100.00,ENE,66,0.0,2.0,74,-99.99,,,-99.99,,2013-02-18 12:53:00,
2013-02-18 05:02:00,31.0,24.0,-100.00,ENE,66,0.0,2.0,74,-99.99,,,-99.99,,2013-02-18 13:02:00,
2013-02-18 05:12:00,32.0,25.0,-100.00,ENE,59,1.0,3.0,76,-99.99,,,-99.99,,2013-02-18 13:12:00,
2013-02-18 05:22:00,32.0,25.0,-100.00,ENE,59,1.0,3.0,76,-99.99,,,-99.99,,2013-02-18 13:22:00,
2013-02-18 05:32:00,32.0,25.0,-100.00,East,79,1.0,3.0,75,-99.99,,,-99.99,,2013-02-18 13:32:00,
2013-02-18 05:42:00,32.0,25.0,-100.00,East,79,1.0,3.0,75,-99.99,,,-99.99,,2013-02-18 13:42:00,
2013-02-18 05:53:00,32.0,24.0,-100.00,ENE,61,1.0,3.0,74,-99.99,,,-99.99,,2013-02-18 13:53:00,
2013-02-18 06:02:00,32.0,24.0,-100.00,ENE,61,1.0,3.0,74,-99.99,,,-99.99,,2013-02-18 14:02:00,
2013-02-18 06:11:00,32.0,24.0,-100.00,ENE,68,1.0,2.0,71,-99.99,,,-99.99,,2013-02-18 14:11:00,
2013-02-18 06:22:00,32.0,24.0,-100.00,ENE,68,1.0,2.0,71,-99.99,,,-99.99,,2013-02-18 14:22:00,
2013-02-18 06:32:00,32.0,25.0,-100.00,ENE,75,1.0,2.0,75,-99.99,,,-99.99,,2013-02-18 14:32:00,
2013-02-18 06:41:00,32.0,25.0,-100.00,ENE,75,1.0,2.0,75,-99.99,,,-99.99,,2013-02-18 14:41:00,
2013-02-18 06:53:00,32.0,22.0,-100.00,ENE,65,1.0,3.0,66,-99.99,,,-99.99,,2013-02-18 14:53:00,
2013-02-18 07:02:00,32.0,22.0,-100.00,ENE,65,1.0,3.0,66,-99.99,,,-99.99,,2013-02-18 15:02:00,
2013-02-18 07:11:00,31.0,21.0,-100.00,NE,56,0.0,2.0,65,-99.99,,,-99.99,,2013-02-18 15:11:00,
2013-02-18 07:22:00,31.0,21.0,-100.00,NE,56,0.0,2.0,65,-99.99,,,-99.99,,2013-02-18 15:22:00,
2013-02-18 07:32:00,31.0,22.0,-100.00,ENE,62,0.0,2.0,68,-99.99,,,-99.99,,2013-02-18 15:32:00,
2013-02-18 07:42:00,31.0,22.0,-100.00,ENE,62,0.0,2.0,68,-99.99,,,-99.99,,2013-02-18 15:42:00,
2013-02-18 07:52:00,32.0,24.0,-100.00,ENE,72,1.0,2.0,72,-99.99,,,-99.99,,2013-02-18 15:52:00,
2013-02-18 08:02:00,32.0,24.0,-100.00,ENE,72,1.0,2.0,72,-99.99,,,-99.99,,2013-02-18 16:02:00,
2013-02-18 08:12:00,32.0,23.0,-100.00,ENE,76,2.0,4.0,70,-99.99,,,-99.99,,2013-02-18 16:12:00,
2013-02-18 08:22:00,32.0,23.0,-100.00,ENE,76,2.0,4.0,70,-99.99,,,-99.99,,2013-02-18 16:22:00,
2013-02-18 08:32:00,33.0,24.0,-100.00,ENE,69,0.0,2.0,70,-99.99,,,-99.99,,2013-02-18 16:32:00,
2013-02-18 08:42:00,33.0,24.0,-100.00,ENE,69,0.0,2.0,70,-99.99,,,-99.99,,2013-02-18 16:42:00,
2013-02-18 08:53:00,33.0,24.0,-100.00,NE,56,0.0,0.0,71,-99.99,,,-99.99,,2013-02-18 16:53:00,
2013-02-18 09:03:00,33.0,24.0,-100.00,NE,56,0.0,0.0,71,-99.99,,,-99.99,,2013-02-18 17:03:00,
2013-02-18 09:32:00,35.0,27.0,-100.00,WNW,292,0.0,0.0,72,-99.99,,,-99.99,,2013-02-18 17:32:00,
2013-02-18 09:42:00,35.0,27.0,-100.00,WNW,292,0.0,0.0,72,-99.99,,,-99.99,,2013-02-18 17:42:00,
2013-02-18 09:53:00,36.0,29.0,-100.00,WSW,254,0.0,1.0,75,-99.99,,,-99.99,,2013-02-18 17:53:00,
2013-02-18 10:02:00,36.0,29.0,-100.00,WSW,254,0.0,1.0,75,-99.99,,,-99.99,,2013-02-18 18:02:00,
2013-02-18 10:12:00,36.0,29.0,-100.00,WSW,247,0.0,2.0,74,-99.99,,,-99.99,,2013-02-18 18:12:00,
2013-02-18 10:22:00,36.0,29.0,-100.00,WSW,247,0.0,2.0,74,-99.99,,,-99.99,,2013-02-18 18:22:00,
2013-02-18 11:33:00,39.0,30.0,-100.00,SSW,208,1.0,3.0,70,-99.99,,,-99.99,,2013-02-18 19:33:00,
2013-02-18 11:42:00,39.0,30.0,-100.00,SSW,208,1.0,3.0,70,-99.99,,,-99.99,,2013-02-18 19:42:00,
2013-02-18 11:53:00,39.0,28.0,-100.00,SW,220,1.0,3.0,63,-99.99,,,-99.99,,2013-02-18 19:53:00,
2013-02-18 12:02:00,39.0,28.0,-100.00,SW,220,1.0,3.0,63,-99.99,,,-99.99,,2013-02-18 20:02:00,
2013-02-18 12:12:00,40.0,18.0,-100.00,WSW,240,1.0,3.0,40,-99.99,,,-99.99,,2013-02-18 20:12:00,
2013-02-18 12:22:00,40.0,18.0,-100.00,WSW,240,1.0,3.0,40,-99.99,,,-99.99,,2013-02-18 20:22:00,
2013-02-18 12:53:00,41.0,12.0,-100.00,SW,220,1.0,4.0,29,-99.99,,,-99.99,,2013-02-18 20:53:00,
2013-02-18 13:02:00,41.0,12.0,-100.00,SW,220,1.0,4.0,29,-99.99,,,-99.99,,2013-02-18 21:02:00,
2013-02-18 13:32:00,43.0,16.0,-100.00,NE,56,2.0,10.0,34,-99.99,,,-99.99,,2013-02-18 21:32:00,
2013-02-18 13:42:00,43.0,16.0,-100.00,NE,56,2.0,10.0,34,-99.99,,,-99.99,,2013-02-18 21:42:00,
2013-02-18 13:53:00,44.0,16.0,-100.00,SW,223,2.0,5.0,31,-99.99,,,-99.99,,2013-02-18 21:53:00,
2013-02-18 14:02:00,44.0,16.0,-100.00,SW,223,2.0,5.0,31,-99.99,,,-99.99,,2013-02-18 22:02:00,
2013-02-18 14:12:00,45.0,24.0,-100.00,SSW,196,4.0,8.0,43,-99.99,,,-99.99,,2013-02-18 22:12:00,
2013-02-18 14:22:00,45.0,24.0,-100.00,SSW,196,4.0,8.0,43,-99.99,,,-99.99,,2013-02-18 22:22:00,
2013-02-18 14:53:00,45.0,21.0,-100.00,SSW,199,6.0,13.0,39,-99.99,,,-99.99,,2013-02-18 22:53:00,
2013-02-18 15:02:00,45.0,21.0,-100.00,SSW,199,6.0,13.0,39,-99.99,,,-99.99,,2013-02-18 23:02:00,
2013-02-18 15:12:00,45.0,22.0,-100.00,SSW,200,6.0,14.0,40,-99.99,,,-99.99,,2013-02-18 23:12:00,
2013-02-18 15:22:00,45.0,22.0,-100.00,SSW,200,6.0,14.0,40,-99.99,,,-99.99,,2013-02-18 23:22:00,
2013-02-18 15:32:00,45.0,21.0,-100.00,SSW,208,5.0,11.0,39,-99.99,,,-99.99,,2013-02-18 23:32:00,
2013-02-18 15:42:00,45.0,21.0,-100.00,SSW,208,5.0,11.0,39,-99.99,,,-99.99,,2013-02-18 23:42:00,
2013-02-18 15:53:00,42.0,22.0,-100.00,SSW,212,4.0,10.0,45,-99.99,,,-99.99,,2013-02-18 23:53:00,
2013-02-18 16:02:00,42.0,22.0,-100.00,SSW,212,4.0,10.0,45,-99.99,,,-99.99,,2013-02-19 00:02:00,
2013-02-18 16:12:00,42.0,24.0,-100.00,SW,222,4.0,12.0,50,-99.99,,,-99.99,,2013-02-19 00:12:00,
2013-02-18 16:22:00,42.0,24.0,-100.00,SW,222,4.0,12.0,50,-99.99,,,-99.99,,2013-02-19 00:22:00,
2013-02-18 16:33:00,43.0,26.0,-100.00,SW,226,5.0,12.0,51,-99.99,,,-99.99,,2013-02-19 00:33:00,
2013-02-18 16:42:00,43.0,26.0,-100.00,SW,226,5.0,12.0,51,-99.99,,,-99.99,,2013-02-19 00:42:00,
2013-02-18 17:13:00,42.0,26.0,-100.00,SSW,202,6.0,12.0,53,-99.99,,,-99.99,,2013-02-19 01:13:00,
2013-02-18 17:23:00,42.0,26.0,-100.00,SSW,202,6.0,12.0,53,-99.99,,,-99.99,,2013-02-19 01:23:00,
2013-02-18 17:33:00,41.0,27.0,-100.00,SSW,198,7.0,13.0,57,-99.99,,,-99.99,,2013-02-19 01:33:00,
2013-02-18 17:43:00,41.0,27.0,-100.00,SSW,198,7.0,13.0,57,-99.99,,,-99.99,,2013-02-19 01:43:00,
2013-02-18 17:55:00,40.0,28.0,-100.00,SSW,196,7.0,14.0,62,-99.99,,,-99.99,,2013-02-19 01:55:00,
2013-02-18 18:02:00,40.0,28.0,-100.00,SSW,196,7.0,14.0,62,-99.99,,,-99.99,,2013-02-19 02:02:00,
2013-02-18 18:33:00,38.0,25.0,-100.00,SSW,210,4.0,11.0,58,-99.99,,,-99.99,,2013-02-19 02:33:00,
2013-02-18 18:42:00,38.0,25.0,-100.00,SSW,210,4.0,11.0,58,-99.99,,,-99.99,,2013-02-19 02:42:00,
2013-02-18 18:54:00,38.0,22.0,-100.00,SW,220,4.0,8.0,53,-99.99,,,-99.99,,2013-02-19 02:54:00,
2013-02-18 19:04:00,38.0,22.0,-100.00,SW,220,4.0,8.0,53,-99.99,,,-99.99,,2013-02-19 03:04:00,
2013-02-18 19:13:00,37.0,24.0,-100.00,SW,232,3.0,8.0,58,-99.99,,,-99.99,,2013-02-19 03:13:00,
2013-02-18 19:22:00,37.0,24.0,-100.00,SW,232,3.0,8.0,58,-99.99,,,-99.99,,2013-02-19 03:22:00,
2013-02-18 19:33:00,37.0,24.0,-100.00,SW,222,3.0,9.0,58,-99.99,,,-99.99,,2013-02-19 03:33:00,
2013-02-18 19:43:00,37.0,24.0,-100.00,SW,222,3.0,9.0,58,-99.99,,,-99.99,,2013-02-19 03:43:00,
2013-02-18 19:54:00,37.0,22.0,-100.00,SW,234,2.0,7.0,55,-99.99,,,-99.99,,2013-02-19 03:54:00,
2013-02-18 20:02:00,37.0,22.0,-100.00,SW,234,2.0,7.0,55,-99.99,,,-99.99,,2013-02-19 04:02:00,
2013-02-18 21:12:00,35.0,26.0,-100.00,SW,227,4.0,14.0,67,-99.99,,,-99.99,,2013-02-19 05:12:00,
2013-02-18 21:22:00,35.0,26.0,-100.00,SW,227,4.0,14.0,67,-99.99,,,-99.99,,2013-02-19 05:22:00,
2013-02-18 21:32:00,36.0,25.0,-100.00,SW,226,6.0,15.0,66,-99.99,,,-99.99,,2013-02-19 05:32:00,
2013-02-18 21:43:00,36.0,25.0,-100.00,SW,226,6.0,15.0,66,-99.99,,,-99.99,,2013-02-19 05:43:00,
2013-02-18 21:52:00,35.0,25.0,-100.00,SW,216,5.0,13.0,66,-99.99,,,-99.99,,2013-02-19 05:52:00,
2013-02-18 22:02:00,35.0,25.0,-100.00,SW,216,5.0,13.0,66,-99.99,,,-99.99,,2013-02-19 06:02:00,
2013-02-18 22:11:00,35.0,26.0,-100.00,SW,219,6.0,15.0,70,-99.99,,,-99.99,,2013-02-19 06:11:00,
2013-02-18 22:21:00,35.0,26.0,-100.00,SW,219,6.0,15.0,70,-99.99,,,-99.99,,2013-02-19 06:21:00,
2013-02-18 22:32:00,35.0,26.0,-100.00,SW,215,6.0,15.0,71,-99.99,,,-99.99,,2013-02-19 06:32:00,
2013-02-18 22:42:00,35.0,26.0,-100.00,SW,215,6.0,15.0,71,-99.99,,,-99.99,,2013-02-19 06:42:00,
2013-02-18 22:52:00,35.0,26.0,-100.00,SSW,208,8.0,16.0,70,-99.99,,,-99.99,,2013-02-19 06:52:00,
2013-02-18 23:01:00,35.0,26.0,-100.00,SSW,208,8.0,16.0,70,-99.99,,,-99.99,,2013-02-19 07:01:00,
2013-02-18 23:11:00,34.0,24.0,-100.00,SSW,200,8.0,17.0,65,-99.99,,,-99.99,,2013-02-19 07:11:00,
2013-02-18 23:21:00,34.0,24.0,-100.00,SSW,200,8.0,17.0,65,-99.99,,,-99.99,,2013-02-19 07:21:00,
2013-02-18 23:32:00,35.0,24.0,-100.00,SSW,195,10.0,19.0,64,-99.99,,,-99.99,,2013-02-19 07:32:00,
2013-02-18 23:42:00,35.0,24.0,-100.00,SSW,195,10.0,19.0,64,-99.99,,,-99.99,,2013-02-19 07:42:00,